sensor_id;sensor_type;location;lat;lon;timestamp;temperature;humidity
73643;DHT22;61938;48.652;9.292;2023-03-01T00:02:01;-1.20;99.90
73643;DHT22;61938;48.652;9.292;2023-03-01T00:04:26;-1.20;99.90
73643;DHT22;61938;48.652;9.292;2023-03-01T00:06:53;-1.20;99.90
73643;DHT22;61938;48.652;9.292;2023-03-01T00:09:18;-1.20;99.90
73643;DHT22;61938;48.652;9.292;2023-03-01T00:11:44;-1.20;99.90
73643;DHT22;61938;48.652;9.292;2023-03-01T00:14:09;-1.20;99.90
73643;DHT22;61938;48.652;9.292;2023-03-01T00:16:39;-1.20;99.90
73643;DHT22;61938;48.652;9.292;2023-03-01T00:19:06;-1.20;99.90
73643;DHT22;61938;48.652;9.292;2023-03-01T00:21:32;-1.20;99.90
73643;DHT22;61938;48.652;9.292;2023-03-01T00:23:59;-1.30;99.90
73643;DHT22;61938;48.652;9.292;2023-03-01T00:26:25;-1.30;99.90
73643;DHT22;61938;48.652;9.292;2023-03-01T00:28:51;-1.30;99.90
73643;DHT22;61938;48.652;9.292;2023-03-01T00:31:22;-1.40;99.90
73643;DHT22;61938;48.652;9.292;2023-03-01T00:33:48;-1.40;99.90
73643;DHT22;61938;48.652;9.292;2023-03-01T00:36:15;-1.50;99.90
73643;DHT22;61938;48.652;9.292;2023-03-01T00:38:43;-1.60;99.90
73643;DHT22;61938;48.652;9.292;2023-03-01T00:41:14;-1.50;99.90
73643;DHT22;61938;48.652;9.292;2023-03-01T00:43:40;-1.60;99.90
73643;DHT22;61938;48.652;9.292;2023-03-01T00:46:09;-1.60;99.90
73643;DHT22;61938;48.652;9.292;2023-03-01T00:48:35;-1.60;99.90
73643;DHT22;61938;48.652;9.292;2023-03-01T00:51:15;-1.60;99.90
73643;DHT22;61938;48.652;9.292;2023-03-01T00:53:41;-1.60;99.90
73643;DHT22;61938;48.652;9.292;2023-03-01T00:56:09;-1.60;99.90
73643;DHT22;61938;48.652;9.292;2023-03-01T00:58:35;-1.60;99.90
73643;DHT22;61938;48.652;9.292;2023-03-01T01:01:01;-1.60;99.90
73643;DHT22;61938;48.652;9.292;2023-03-01T01:03:31;-1.50;99.90
73643;DHT22;61938;48.652;9.292;2023-03-01T01:05:57;-1.50;99.90
73643;DHT22;61938;48.652;9.292;2023-03-01T01:08:23;-1.50;99.90
73643;DHT22;61938;48.652;9.292;2023-03-01T01:10:48;-1.50;99.90
73643;DHT22;61938;48.652;9.292;2023-03-01T01:13:14;-1.50;99.90
73643;DHT22;61938;48.652;9.292;2023-03-01T01:15:39;-1.50;99.90
73643;DHT22;61938;48.652;9.292;2023-03-01T01:18:05;-1.50;99.90
73643;DHT22;61938;48.652;9.292;2023-03-01T01:20:31;-1.50;99.90
73643;DHT22;61938;48.652;9.292;2023-03-01T01:22:56;-1.50;99.90
73643;DHT22;61938;48.652;9.292;2023-03-01T01:25:22;-1.50;99.90
73643;DHT22;61938;48.652;9.292;2023-03-01T01:27:50;-1.50;99.90
73643;DHT22;61938;48.652;9.292;2023-03-01T01:30:16;-1.50;99.90
73643;DHT22;61938;48.652;9.292;2023-03-01T01:32:41;-1.50;99.90
73643;DHT22;61938;48.652;9.292;2023-03-01T01:35:07;-1.50;99.90
73643;DHT22;61938;48.652;9.292;2023-03-01T01:37:33;-1.40;99.90
73643;DHT22;61938;48.652;9.292;2023-03-01T01:39:59;-1.40;99.90
73643;DHT22;61938;48.652;9.292;2023-03-01T01:42:24;-1.30;99.90
73643;DHT22;61938;48.652;9.292;2023-03-01T01:45:24;-1.30;99.90
73643;DHT22;61938;48.652;9.292;2023-03-01T01:47:52;-1.20;99.90
73643;DHT22;61938;48.652;9.292;2023-03-01T01:50:19;-1.20;99.90
73643;DHT22;61938;48.652;9.292;2023-03-01T01:52:46;-1.10;99.90
73643;DHT22;61938;48.652;9.292;2023-03-01T01:55:22;-1.10;99.90
73643;DHT22;61938;48.652;9.292;2023-03-01T01:57:54;-1.10;99.90
73643;DHT22;61938;48.652;9.292;2023-03-01T02:00:24;-1.00;99.90
73643;DHT22;61938;48.652;9.292;2023-03-01T02:02:53;-1.00;99.90
73643;DHT22;61938;48.652;9.292;2023-03-01T02:08:04;-1.00;99.90
73643;DHT22;61938;48.652;9.292;2023-03-01T02:10:32;-1.00;99.90
73643;DHT22;61938;48.652;9.292;2023-03-01T02:12:58;-0.90;99.90
73643;DHT22;61938;48.652;9.292;2023-03-01T02:15:25;-0.90;99.90
73643;DHT22;61938;48.652;9.292;2023-03-01T02:17:52;-0.80;99.90
73643;DHT22;61938;48.652;9.292;2023-03-01T02:20:27;-0.80;99.90
73643;DHT22;61938;48.652;9.292;2023-03-01T02:22:55;-0.80;99.90
73643;DHT22;61938;48.652;9.292;2023-03-01T02:25:26;-0.80;99.90
73643;DHT22;61938;48.652;9.292;2023-03-01T02:30:46;-0.70;99.90
73643;DHT22;61938;48.652;9.292;2023-03-01T02:33:32;-0.70;99.90
73643;DHT22;61938;48.652;9.292;2023-03-01T02:36:00;-0.70;99.90
73643;DHT22;61938;48.652;9.292;2023-03-01T02:38:27;-0.70;99.90
73643;DHT22;61938;48.652;9.292;2023-03-01T02:40:54;-0.70;99.90
73643;DHT22;61938;48.652;9.292;2023-03-01T02:43:26;-0.70;99.90
73643;DHT22;61938;48.652;9.292;2023-03-01T02:45:53;-0.60;99.90
73643;DHT22;61938;48.652;9.292;2023-03-01T02:48:22;-0.60;99.90
73643;DHT22;61938;48.652;9.292;2023-03-01T02:51:04;-0.60;99.90
73643;DHT22;61938;48.652;9.292;2023-03-01T02:53:41;-0.60;99.90
73643;DHT22;61938;48.652;9.292;2023-03-01T02:56:10;-0.60;99.90
73643;DHT22;61938;48.652;9.292;2023-03-01T02:58:41;-0.60;99.90
73643;DHT22;61938;48.652;9.292;2023-03-01T03:01:12;-0.60;99.90
73643;DHT22;61938;48.652;9.292;2023-03-01T03:03:40;-0.60;99.90
73643;DHT22;61938;48.652;9.292;2023-03-01T03:06:06;-0.60;99.90
73643;DHT22;61938;48.652;9.292;2023-03-01T03:08:31;-0.60;99.90
73643;DHT22;61938;48.652;9.292;2023-03-01T03:10:57;-0.60;99.90
73643;DHT22;61938;48.652;9.292;2023-03-01T03:13:22;-0.60;99.90
73643;DHT22;61938;48.652;9.292;2023-03-01T03:15:55;-0.60;99.90
73643;DHT22;61938;48.652;9.292;2023-03-01T03:18:21;-0.60;99.90
73643;DHT22;61938;48.652;9.292;2023-03-01T03:20:47;-0.60;99.90
73643;DHT22;61938;48.652;9.292;2023-03-01T03:23:13;-0.50;99.90
73643;DHT22;61938;48.652;9.292;2023-03-01T03:25:39;-0.50;99.90
73643;DHT22;61938;48.652;9.292;2023-03-01T03:28:06;-0.50;99.90
73643;DHT22;61938;48.652;9.292;2023-03-01T03:30:36;-0.60;99.90
73643;DHT22;61938;48.652;9.292;2023-03-01T03:33:02;-0.60;99.90
73643;DHT22;61938;48.652;9.292;2023-03-01T03:35:34;-0.60;99.90
73643;DHT22;61938;48.652;9.292;2023-03-01T03:38:05;-0.60;99.90
73643;DHT22;61938;48.652;9.292;2023-03-01T03:40:37;-0.60;99.90
73643;DHT22;61938;48.652;9.292;2023-03-01T03:43:04;-0.50;99.90
73643;DHT22;61938;48.652;9.292;2023-03-01T03:45:29;-0.50;99.90
73643;DHT22;61938;48.652;9.292;2023-03-01T03:47:58;-0.50;99.90
73643;DHT22;61938;48.652;9.292;2023-03-01T03:50:24;-0.50;99.90
73643;DHT22;61938;48.652;9.292;2023-03-01T03:52:49;-0.50;99.90
73643;DHT22;61938;48.652;9.292;2023-03-01T03:55:15;-0.50;99.90
73643;DHT22;61938;48.652;9.292;2023-03-01T03:57:46;-0.50;99.90
73643;DHT22;61938;48.652;9.292;2023-03-01T04:00:18;-0.50;99.90
73643;DHT22;61938;48.652;9.292;2023-03-01T04:02:46;-0.50;99.90
73643;DHT22;61938;48.652;9.292;2023-03-01T04:05:14;-0.40;99.90
73643;DHT22;61938;48.652;9.292;2023-03-01T04:07:41;-0.40;99.90
73643;DHT22;61938;48.652;9.292;2023-03-01T04:10:09;-0.40;99.90
73643;DHT22;61938;48.652;9.292;2023-03-01T04:12:36;-0.40;99.90
73643;DHT22;61938;48.652;9.292;2023-03-01T04:15:03;-0.40;99.90
73643;DHT22;61938;48.652;9.292;2023-03-01T04:17:38;-0.40;99.90
73643;DHT22;61938;48.652;9.292;2023-03-01T04:20:05;-0.40;99.90
73643;DHT22;61938;48.652;9.292;2023-03-01T04:22:31;-0.40;99.90
73643;DHT22;61938;48.652;9.292;2023-03-01T04:24:57;-0.40;99.90
73643;DHT22;61938;48.652;9.292;2023-03-01T04:27:23;-0.40;99.90
73643;DHT22;61938;48.652;9.292;2023-03-01T04:29:48;-0.40;99.90
73643;DHT22;61938;48.652;9.292;2023-03-01T04:32:14;-0.40;99.90
73643;DHT22;61938;48.652;9.292;2023-03-01T04:34:41;-0.40;99.90
73643;DHT22;61938;48.652;9.292;2023-03-01T04:37:07;-0.40;99.90
73643;DHT22;61938;48.652;9.292;2023-03-01T04:39:32;-0.40;99.90
73643;DHT22;61938;48.652;9.292;2023-03-01T04:41:58;-0.40;99.90
73643;DHT22;61938;48.652;9.292;2023-03-01T04:44:23;-0.40;99.90
73643;DHT22;61938;48.652;9.292;2023-03-01T04:46:49;-0.40;99.90
73643;DHT22;61938;48.652;9.292;2023-03-01T04:49:15;-0.30;99.90
73643;DHT22;61938;48.652;9.292;2023-03-01T04:51:41;-0.40;99.90
73643;DHT22;61938;48.652;9.292;2023-03-01T04:54:06;-0.30;99.90
73643;DHT22;61938;48.652;9.292;2023-03-01T04:56:34;-0.30;99.90
73643;DHT22;61938;48.652;9.292;2023-03-01T04:58:59;-0.30;99.90
73643;DHT22;61938;48.652;9.292;2023-03-01T05:01:25;-0.30;99.90
73643;DHT22;61938;48.652;9.292;2023-03-01T05:03:51;-0.30;99.90
73643;DHT22;61938;48.652;9.292;2023-03-01T05:06:18;-0.30;99.90
73643;DHT22;61938;48.652;9.292;2023-03-01T05:08:44;-0.30;99.90
73643;DHT22;61938;48.652;9.292;2023-03-01T05:11:10;-0.30;99.90
73643;DHT22;61938;48.652;9.292;2023-03-01T05:13:37;-0.30;99.90
73643;DHT22;61938;48.652;9.292;2023-03-01T05:16:04;-0.30;99.90
73643;DHT22;61938;48.652;9.292;2023-03-01T05:18:32;-0.30;99.90
73643;DHT22;61938;48.652;9.292;2023-03-01T05:21:09;-0.30;99.90
73643;DHT22;61938;48.652;9.292;2023-03-01T05:23:35;-0.30;99.90
73643;DHT22;61938;48.652;9.292;2023-03-01T05:26:03;-0.30;99.90
73643;DHT22;61938;48.652;9.292;2023-03-01T05:28:29;-0.30;99.90
73643;DHT22;61938;48.652;9.292;2023-03-01T05:30:56;-0.30;99.90
73643;DHT22;61938;48.652;9.292;2023-03-01T05:33:22;-0.30;99.90
73643;DHT22;61938;48.652;9.292;2023-03-01T05:35:49;-0.30;99.90
73643;DHT22;61938;48.652;9.292;2023-03-01T05:38:16;-0.20;99.90
73643;DHT22;61938;48.652;9.292;2023-03-01T05:40:43;-0.20;99.90
73643;DHT22;61938;48.652;9.292;2023-03-01T05:43:13;-0.20;99.90
73643;DHT22;61938;48.652;9.292;2023-03-01T05:45:40;-0.20;99.90
73643;DHT22;61938;48.652;9.292;2023-03-01T05:48:07;-0.20;99.90
73643;DHT22;61938;48.652;9.292;2023-03-01T05:50:35;-0.20;99.90
73643;DHT22;61938;48.652;9.292;2023-03-01T05:53:04;-0.20;99.90
73643;DHT22;61938;48.652;9.292;2023-03-01T05:55:34;-0.20;99.90
73643;DHT22;61938;48.652;9.292;2023-03-01T05:58:02;-0.10;99.90
73643;DHT22;61938;48.652;9.292;2023-03-01T06:00:28;-0.20;99.90
73643;DHT22;61938;48.652;9.292;2023-03-01T06:02:55;-0.10;99.90
73643;DHT22;61938;48.652;9.292;2023-03-01T06:05:21;-0.10;99.90
73643;DHT22;61938;48.652;9.292;2023-03-01T06:07:47;-0.10;99.90
73643;DHT22;61938;48.652;9.292;2023-03-01T06:10:13;-0.10;99.90
73643;DHT22;61938;48.652;9.292;2023-03-01T06:12:40;-0.10;99.90
73643;DHT22;61938;48.652;9.292;2023-03-01T06:15:07;-0.10;99.90
73643;DHT22;61938;48.652;9.292;2023-03-01T06:17:36;-0.10;99.90
73643;DHT22;61938;48.652;9.292;2023-03-01T06:22:32;-0.10;99.90
73643;DHT22;61938;48.652;9.292;2023-03-01T06:24:58;-0.20;99.90
73643;DHT22;61938;48.652;9.292;2023-03-01T06:27:23;-0.20;99.90
73643;DHT22;61938;48.652;9.292;2023-03-01T06:29:49;-0.20;99.90
73643;DHT22;61938;48.652;9.292;2023-03-01T06:32:14;-0.30;99.90
73643;DHT22;61938;48.652;9.292;2023-03-01T06:34:40;-0.20;99.90
73643;DHT22;61938;48.652;9.292;2023-03-01T06:37:06;-0.10;99.90
73643;DHT22;61938;48.652;9.292;2023-03-01T06:39:32;0.10;99.90
73643;DHT22;61938;48.652;9.292;2023-03-01T06:41:58;0.20;99.90
73643;DHT22;61938;48.652;9.292;2023-03-01T06:44:24;0.40;99.90
73643;DHT22;61938;48.652;9.292;2023-03-01T06:46:49;0.50;99.90
73643;DHT22;61938;48.652;9.292;2023-03-01T06:49:15;0.70;99.90
73643;DHT22;61938;48.652;9.292;2023-03-01T06:51:43;0.90;99.90
73643;DHT22;61938;48.652;9.292;2023-03-01T06:54:08;0.90;99.90
73643;DHT22;61938;48.652;9.292;2023-03-01T06:56:34;0.90;99.90
73643;DHT22;61938;48.652;9.292;2023-03-01T06:58:59;1.00;99.90
73643;DHT22;61938;48.652;9.292;2023-03-01T07:01:25;1.00;99.90
73643;DHT22;61938;48.652;9.292;2023-03-01T07:03:50;1.20;99.90
73643;DHT22;61938;48.652;9.292;2023-03-01T07:06:16;1.40;99.90
73643;DHT22;61938;48.652;9.292;2023-03-01T07:08:43;1.60;99.90
73643;DHT22;61938;48.652;9.292;2023-03-01T07:11:08;1.60;99.90
73643;DHT22;61938;48.652;9.292;2023-03-01T07:13:34;2.00;99.90
73643;DHT22;61938;48.652;9.292;2023-03-01T07:15:59;2.10;99.90
73643;DHT22;61938;48.652;9.292;2023-03-01T07:18:25;2.20;99.90
73643;DHT22;61938;48.652;9.292;2023-03-01T07:20:50;2.30;99.90
73643;DHT22;61938;48.652;9.292;2023-03-01T07:23:16;2.40;99.90
73643;DHT22;61938;48.652;9.292;2023-03-01T07:25:41;2.40;99.90
73643;DHT22;61938;48.652;9.292;2023-03-01T07:28:07;2.70;99.90
73643;DHT22;61938;48.652;9.292;2023-03-01T07:30:33;2.70;99.90
73643;DHT22;61938;48.652;9.292;2023-03-01T07:32:58;2.70;99.90
73643;DHT22;61938;48.652;9.292;2023-03-01T07:35:27;2.80;99.90
73643;DHT22;61938;48.652;9.292;2023-03-01T07:37:53;3.00;99.90
73643;DHT22;61938;48.652;9.292;2023-03-01T07:40:19;3.00;99.90
73643;DHT22;61938;48.652;9.292;2023-03-01T07:42:45;3.30;99.90
73643;DHT22;61938;48.652;9.292;2023-03-01T07:45:10;3.30;99.90
73643;DHT22;61938;48.652;9.292;2023-03-01T07:47:36;3.50;99.90
73643;DHT22;61938;48.652;9.292;2023-03-01T07:50:03;3.40;99.90
73643;DHT22;61938;48.652;9.292;2023-03-01T07:52:29;3.50;99.90
73643;DHT22;61938;48.652;9.292;2023-03-01T07:54:56;3.40;99.90
73643;DHT22;61938;48.652;9.292;2023-03-01T07:57:22;3.40;99.90
73643;DHT22;61938;48.652;9.292;2023-03-01T07:59:47;3.90;99.90
73643;DHT22;61938;48.652;9.292;2023-03-01T08:02:13;4.10;99.90
73643;DHT22;61938;48.652;9.292;2023-03-01T08:04:40;4.00;99.90
73643;DHT22;61938;48.652;9.292;2023-03-01T08:07:06;4.20;99.90
73643;DHT22;61938;48.652;9.292;2023-03-01T08:09:34;4.20;99.90
73643;DHT22;61938;48.652;9.292;2023-03-01T08:12:01;4.10;99.90
73643;DHT22;61938;48.652;9.292;2023-03-01T08:14:26;4.10;99.90
73643;DHT22;61938;48.652;9.292;2023-03-01T08:16:52;4.50;99.90
73643;DHT22;61938;48.652;9.292;2023-03-01T08:19:17;4.70;99.90
73643;DHT22;61938;48.652;9.292;2023-03-01T08:21:43;4.70;99.90
73643;DHT22;61938;48.652;9.292;2023-03-01T08:24:08;4.50;99.90
73643;DHT22;61938;48.652;9.292;2023-03-01T08:26:36;4.50;99.90
73643;DHT22;61938;48.652;9.292;2023-03-01T08:29:03;4.40;99.90
73643;DHT22;61938;48.652;9.292;2023-03-01T08:31:34;4.40;99.90
73643;DHT22;61938;48.652;9.292;2023-03-01T08:34:02;4.50;99.90
73643;DHT22;61938;48.652;9.292;2023-03-01T08:36:34;4.50;99.90
73643;DHT22;61938;48.652;9.292;2023-03-01T08:39:00;4.90;99.90
73643;DHT22;61938;48.652;9.292;2023-03-01T08:41:26;4.80;99.90
73643;DHT22;61938;48.652;9.292;2023-03-01T08:43:51;5.00;99.90
73643;DHT22;61938;48.652;9.292;2023-03-01T08:46:18;5.00;99.90
73643;DHT22;61938;48.652;9.292;2023-03-01T08:48:43;5.10;99.90
73643;DHT22;61938;48.652;9.292;2023-03-01T08:51:11;5.20;99.90
73643;DHT22;61938;48.652;9.292;2023-03-01T08:53:38;5.20;99.90
73643;DHT22;61938;48.652;9.292;2023-03-01T08:56:04;4.80;99.90
73643;DHT22;61938;48.652;9.292;2023-03-01T08:58:29;4.80;99.90
73643;DHT22;61938;48.652;9.292;2023-03-01T09:00:55;5.20;99.90
73643;DHT22;61938;48.652;9.292;2023-03-01T09:03:22;5.40;99.90
73643;DHT22;61938;48.652;9.292;2023-03-01T09:05:49;5.90;99.90
73643;DHT22;61938;48.652;9.292;2023-03-01T09:08:16;5.80;99.90
73643;DHT22;61938;48.652;9.292;2023-03-01T09:10:41;5.90;99.90
73643;DHT22;61938;48.652;9.292;2023-03-01T09:13:07;6.00;99.90
73643;DHT22;61938;48.652;9.292;2023-03-01T09:15:33;5.90;99.90
73643;DHT22;61938;48.652;9.292;2023-03-01T09:17:59;5.90;99.90
73643;DHT22;61938;48.652;9.292;2023-03-01T09:20:25;5.70;99.90
73643;DHT22;61938;48.652;9.292;2023-03-01T09:22:50;5.90;99.90
73643;DHT22;61938;48.652;9.292;2023-03-01T09:25:16;6.00;99.90
73643;DHT22;61938;48.652;9.292;2023-03-01T09:27:41;6.10;99.90
73643;DHT22;61938;48.652;9.292;2023-03-01T09:30:08;5.70;99.90
73643;DHT22;61938;48.652;9.292;2023-03-01T09:32:33;5.40;99.90
73643;DHT22;61938;48.652;9.292;2023-03-01T09:34:59;5.70;99.90
73643;DHT22;61938;48.652;9.292;2023-03-01T09:37:35;6.00;99.90
73643;DHT22;61938;48.652;9.292;2023-03-01T09:40:03;6.10;99.90
73643;DHT22;61938;48.652;9.292;2023-03-01T09:42:32;6.20;99.90
73643;DHT22;61938;48.652;9.292;2023-03-01T09:45:09;6.40;99.90
73643;DHT22;61938;48.652;9.292;2023-03-01T09:47:37;6.50;99.90
73643;DHT22;61938;48.652;9.292;2023-03-01T09:50:14;6.60;99.90
73643;DHT22;61938;48.652;9.292;2023-03-01T09:52:43;6.50;99.90
73643;DHT22;61938;48.652;9.292;2023-03-01T09:55:16;6.70;99.90
73643;DHT22;61938;48.652;9.292;2023-03-01T10:00:48;7.00;99.90
73643;DHT22;61938;48.652;9.292;2023-03-01T10:03:32;7.20;99.90
73643;DHT22;61938;48.652;9.292;2023-03-01T10:06:13;7.50;99.90
73643;DHT22;61938;48.652;9.292;2023-03-01T10:08:46;7.70;99.90
73643;DHT22;61938;48.652;9.292;2023-03-01T10:11:21;7.30;99.90
73643;DHT22;61938;48.652;9.292;2023-03-01T10:17:03;8.20;99.90
73643;DHT22;61938;48.652;9.292;2023-03-01T10:19:42;8.40;99.90
73643;DHT22;61938;48.652;9.292;2023-03-01T10:22:20;8.10;99.90
73643;DHT22;61938;48.652;9.292;2023-03-01T10:24:50;8.20;99.90
73643;DHT22;61938;48.652;9.292;2023-03-01T10:27:26;8.30;99.90
73643;DHT22;61938;48.652;9.292;2023-03-01T10:30:16;7.90;99.90
73643;DHT22;61938;48.652;9.292;2023-03-01T10:32:43;8.20;99.90
73643;DHT22;61938;48.652;9.292;2023-03-01T10:35:24;8.40;99.90
73643;DHT22;61938;48.652;9.292;2023-03-01T10:38:07;8.40;99.90
73643;DHT22;61938;48.652;9.292;2023-03-01T10:40:41;8.40;99.90
73643;DHT22;61938;48.652;9.292;2023-03-01T10:43:14;8.70;99.90
73643;DHT22;61938;48.652;9.292;2023-03-01T10:45:40;7.70;99.90
73643;DHT22;61938;48.652;9.292;2023-03-01T10:48:24;7.50;99.90
73643;DHT22;61938;48.652;9.292;2023-03-01T10:53:43;7.80;99.90
73643;DHT22;61938;48.652;9.292;2023-03-01T10:56:14;8.30;99.90
73643;DHT22;61938;48.652;9.292;2023-03-01T11:01:32;8.80;99.90
73643;DHT22;61938;48.652;9.292;2023-03-01T11:04:11;8.70;99.90
73643;DHT22;61938;48.652;9.292;2023-03-01T11:06:39;9.10;99.90
73643;DHT22;61938;48.652;9.292;2023-03-01T11:09:19;8.10;99.90
73643;DHT22;61938;48.652;9.292;2023-03-01T11:11:45;8.30;99.90
73643;DHT22;61938;48.652;9.292;2023-03-01T11:16:45;9.10;99.90
73643;DHT22;61938;48.652;9.292;2023-03-01T11:21:59;9.50;99.90
73643;DHT22;61938;48.652;9.292;2023-03-01T11:24:40;9.60;99.40
73643;DHT22;61938;48.652;9.292;2023-03-01T11:27:21;9.50;98.10
73643;DHT22;61938;48.652;9.292;2023-03-01T11:30:31;9.30;98.70
73643;DHT22;61938;48.652;9.292;2023-03-01T11:36:05;8.30;99.90
73643;DHT22;61938;48.652;9.292;2023-03-01T11:38:35;8.60;99.10
73643;DHT22;61938;48.652;9.292;2023-03-01T11:43:51;8.90;98.90
73643;DHT22;61938;48.652;9.292;2023-03-01T11:55:17;8.60;99.90
73643;DHT22;61938;48.652;9.292;2023-03-01T11:58:07;9.00;99.90
73643;DHT22;61938;48.652;9.292;2023-03-01T12:00:55;9.50;99.80
73643;DHT22;61938;48.652;9.292;2023-03-01T12:08:59;10.30;95.70
73643;DHT22;61938;48.652;9.292;2023-03-01T12:11:54;10.50;97.10
73643;DHT22;61938;48.652;9.292;2023-03-01T12:20:34;10.60;95.10
73643;DHT22;61938;48.652;9.292;2023-03-01T12:31:28;10.40;95.00
73643;DHT22;61938;48.652;9.292;2023-03-01T12:45:31;10.70;94.30
73643;DHT22;61938;48.652;9.292;2023-03-01T12:50:53;10.70;91.80
73643;DHT22;61938;48.652;9.292;2023-03-01T12:53:28;10.50;93.70
73643;DHT22;61938;48.652;9.292;2023-03-01T12:56:00;10.70;92.20
73643;DHT22;61938;48.652;9.292;2023-03-01T12:58:56;10.80;93.40
73643;DHT22;61938;48.652;9.292;2023-03-01T13:04:51;11.10;90.90
73643;DHT22;61938;48.652;9.292;2023-03-01T13:17:53;11.30;91.50
73643;DHT22;61938;48.652;9.292;2023-03-01T13:20:22;11.20;91.00
73643;DHT22;61938;48.652;9.292;2023-03-01T13:23:12;11.20;91.10
73643;DHT22;61938;48.652;9.292;2023-03-01T13:26:05;11.00;91.10
73643;DHT22;61938;48.652;9.292;2023-03-01T13:31:07;11.20;92.40
73643;DHT22;61938;48.652;9.292;2023-03-01T13:33:48;11.20;91.20
73643;DHT22;61938;48.652;9.292;2023-03-01T13:38:56;10.80;91.80
73643;DHT22;61938;48.652;9.292;2023-03-01T13:46:59;10.80;91.20
73643;DHT22;61938;48.652;9.292;2023-03-01T13:49:56;10.70;91.40
73643;DHT22;61938;48.652;9.292;2023-03-01T13:52:48;10.10;91.40
73643;DHT22;61938;48.652;9.292;2023-03-01T13:57:41;9.90;92.60
73643;DHT22;61938;48.652;9.292;2023-03-01T14:00:24;10.10;92.10
73643;DHT22;61938;48.652;9.292;2023-03-01T14:05:36;10.00;93.30
73643;DHT22;61938;48.652;9.292;2023-03-01T14:08:14;10.00;92.30
73643;DHT22;61938;48.652;9.292;2023-03-01T14:19:10;9.90;93.90
73643;DHT22;61938;48.652;9.292;2023-03-01T14:21:37;9.90;92.90
73643;DHT22;61938;48.652;9.292;2023-03-01T14:24:03;9.80;93.40
73643;DHT22;61938;48.652;9.292;2023-03-01T14:26:31;9.80;93.70
73643;DHT22;61938;48.652;9.292;2023-03-01T14:28:58;9.70;93.90
73643;DHT22;61938;48.652;9.292;2023-03-01T14:31:36;9.70;93.40
73643;DHT22;61938;48.652;9.292;2023-03-01T14:34:03;9.50;94.00
73643;DHT22;61938;48.652;9.292;2023-03-01T14:36:31;9.40;94.40
73643;DHT22;61938;48.652;9.292;2023-03-01T14:38:57;9.20;94.20
73643;DHT22;61938;48.652;9.292;2023-03-01T14:41:33;9.30;94.70
73643;DHT22;61938;48.652;9.292;2023-03-01T14:44:05;9.30;94.60
73643;DHT22;61938;48.652;9.292;2023-03-01T14:46:32;9.10;93.40
73643;DHT22;61938;48.652;9.292;2023-03-01T14:49:03;8.90;94.00
73643;DHT22;61938;48.652;9.292;2023-03-01T14:51:29;8.70;94.60
73643;DHT22;61938;48.652;9.292;2023-03-01T14:53:55;8.70;94.70
73643;DHT22;61938;48.652;9.292;2023-03-01T14:56:21;8.80;94.70
73643;DHT22;61938;48.652;9.292;2023-03-01T14:58:51;8.80;95.90
73643;DHT22;61938;48.652;9.292;2023-03-01T15:01:17;8.80;95.30
73643;DHT22;61938;48.652;9.292;2023-03-01T15:03:46;8.80;95.00
73643;DHT22;61938;48.652;9.292;2023-03-01T15:06:15;8.70;95.10
73643;DHT22;61938;48.652;9.292;2023-03-01T15:08:49;8.70;95.70
73643;DHT22;61938;48.652;9.292;2023-03-01T15:11:31;8.70;96.60
73643;DHT22;61938;48.652;9.292;2023-03-01T15:13:57;8.60;96.20
73643;DHT22;61938;48.652;9.292;2023-03-01T15:16:29;8.60;95.90
73643;DHT22;61938;48.652;9.292;2023-03-01T15:19:04;8.50;96.00
73643;DHT22;61938;48.652;9.292;2023-03-01T15:21:38;8.30;96.80
73643;DHT22;61938;48.652;9.292;2023-03-01T15:24:24;8.30;96.90
73643;DHT22;61938;48.652;9.292;2023-03-01T15:26:55;8.30;97.10
73643;DHT22;61938;48.652;9.292;2023-03-01T15:29:23;8.20;96.60
73643;DHT22;61938;48.652;9.292;2023-03-01T15:32:04;8.10;96.60
73643;DHT22;61938;48.652;9.292;2023-03-01T15:34:35;8.10;97.20
73643;DHT22;61938;48.652;9.292;2023-03-01T15:37:04;8.10;96.80
73643;DHT22;61938;48.652;9.292;2023-03-01T15:39:39;8.10;97.30
73643;DHT22;61938;48.652;9.292;2023-03-01T15:44:37;7.90;97.70
73643;DHT22;61938;48.652;9.292;2023-03-01T15:47:21;7.90;97.80
73643;DHT22;61938;48.652;9.292;2023-03-01T15:49:47;7.90;97.70
73643;DHT22;61938;48.652;9.292;2023-03-01T15:52:26;7.80;97.70
73643;DHT22;61938;48.652;9.292;2023-03-01T15:55:06;7.70;98.50
73643;DHT22;61938;48.652;9.292;2023-03-01T15:57:39;7.60;98.60
73643;DHT22;61938;48.652;9.292;2023-03-01T16:00:05;7.50;98.30
73643;DHT22;61938;48.652;9.292;2023-03-01T16:02:37;7.50;98.10
73643;DHT22;61938;48.652;9.292;2023-03-01T16:05:03;7.40;98.80
73643;DHT22;61938;48.652;9.292;2023-03-01T16:07:29;7.40;98.80
73643;DHT22;61938;48.652;9.292;2023-03-01T16:09:56;7.30;98.50
73643;DHT22;61938;48.652;9.292;2023-03-01T16:12:22;7.20;98.90
73643;DHT22;61938;48.652;9.292;2023-03-01T16:14:47;7.20;99.40
73643;DHT22;61938;48.652;9.292;2023-03-01T16:17:13;7.10;99.70
73643;DHT22;61938;48.652;9.292;2023-03-01T16:19:40;7.10;99.60
73643;DHT22;61938;48.652;9.292;2023-03-01T16:22:06;7.10;99.70
73643;DHT22;61938;48.652;9.292;2023-03-01T16:24:32;7.00;99.50
73643;DHT22;61938;48.652;9.292;2023-03-01T16:26:57;7.00;99.70
73643;DHT22;61938;48.652;9.292;2023-03-01T16:29:23;6.90;99.70
73643;DHT22;61938;48.652;9.292;2023-03-01T16:31:48;6.80;99.90
73643;DHT22;61938;48.652;9.292;2023-03-01T16:34:14;6.70;99.90
73643;DHT22;61938;48.652;9.292;2023-03-01T16:36:42;6.70;99.90
73643;DHT22;61938;48.652;9.292;2023-03-01T16:39:09;6.60;99.90
73643;DHT22;61938;48.652;9.292;2023-03-01T16:41:34;6.60;99.90
73643;DHT22;61938;48.652;9.292;2023-03-01T16:44:00;6.50;99.90
73643;DHT22;61938;48.652;9.292;2023-03-01T16:46:27;6.40;99.90
73643;DHT22;61938;48.652;9.292;2023-03-01T16:48:54;6.40;99.90
73643;DHT22;61938;48.652;9.292;2023-03-01T16:51:21;6.30;99.90
73643;DHT22;61938;48.652;9.292;2023-03-01T16:53:47;6.30;99.90
73643;DHT22;61938;48.652;9.292;2023-03-01T16:56:13;6.20;99.90
73643;DHT22;61938;48.652;9.292;2023-03-01T16:58:39;6.10;99.90
73643;DHT22;61938;48.652;9.292;2023-03-01T17:01:17;6.10;99.90
73643;DHT22;61938;48.652;9.292;2023-03-01T17:03:44;6.00;99.90
73643;DHT22;61938;48.652;9.292;2023-03-01T17:06:13;5.90;99.90
73643;DHT22;61938;48.652;9.292;2023-03-01T17:08:39;5.90;99.90
73643;DHT22;61938;48.652;9.292;2023-03-01T17:11:10;5.80;99.90
73643;DHT22;61938;48.652;9.292;2023-03-01T17:13:37;5.80;99.90
73643;DHT22;61938;48.652;9.292;2023-03-01T17:16:05;5.80;99.90
73643;DHT22;61938;48.652;9.292;2023-03-01T17:18:31;5.70;99.90
73643;DHT22;61938;48.652;9.292;2023-03-01T17:20:56;5.70;99.90
73643;DHT22;61938;48.652;9.292;2023-03-01T17:23:22;5.60;99.90
73643;DHT22;61938;48.652;9.292;2023-03-01T17:25:47;5.50;99.90
73643;DHT22;61938;48.652;9.292;2023-03-01T17:28:13;5.50;99.90
73643;DHT22;61938;48.652;9.292;2023-03-01T17:30:43;5.40;99.90
73643;DHT22;61938;48.652;9.292;2023-03-01T17:33:10;5.30;99.90
73643;DHT22;61938;48.652;9.292;2023-03-01T17:35:35;5.30;99.90
73643;DHT22;61938;48.652;9.292;2023-03-01T17:38:03;5.30;99.90
73643;DHT22;61938;48.652;9.292;2023-03-01T17:40:29;5.20;99.90
73643;DHT22;61938;48.652;9.292;2023-03-01T17:42:54;5.10;99.90
73643;DHT22;61938;48.652;9.292;2023-03-01T17:45:20;5.10;99.90
73643;DHT22;61938;48.652;9.292;2023-03-01T17:47:45;5.00;99.90